createdAt,value
2023-04-25T00:04:39.286Z,2.17
2023-04-25T00:09:41.478Z,2.40
2023-04-25T00:14:43.142Z,2.40
2023-04-25T00:19:47.108Z,2.78
2023-04-25T00:24:48.839Z,2.60
2023-04-25T00:29:50.419Z,2.65
2023-04-25T00:34:52.064Z,3.08
2023-04-25T00:39:55.819Z,3.80
2023-04-25T00:44:59.457Z,3.15
2023-04-25T00:50:01.111Z,3.53
2023-04-25T00:55:03.023Z,3.00
2023-04-25T01:00:07.710Z,3.63
2023-04-25T01:05:10.009Z,3.75
2023-04-25T01:10:11.917Z,3.85
2023-04-25T01:15:13.676Z,3.90
2023-04-25T01:20:15.433Z,4.43
2023-04-25T01:25:18.066Z,3.53
2023-04-25T01:30:19.887Z,3.70
2023-04-25T01:35:23.034Z,3.70
2023-04-25T01:40:25.547Z,3.92
2023-04-25T01:45:27.196Z,4.43
2023-04-25T01:50:30.268Z,4.10
2023-04-25T01:55:32.203Z,3.80
2023-04-25T02:00:40.179Z,3.47
2023-04-25T02:05:41.993Z,4.10
2023-04-25T02:10:46.959Z,3.72
2023-04-25T02:15:51.458Z,4.13
2023-04-25T02:20:55.243Z,4.40
2023-04-25T02:25:58.277Z,3.92
2023-04-25T02:31:00.066Z,4.03
2023-04-25T02:36:01.812Z,3.90
2023-04-25T02:41:03.433Z,4.05
2023-04-25T02:46:05.255Z,4.05
2023-04-25T02:51:07.046Z,3.80
2023-04-25T02:56:08.786Z,4.90
2023-04-25T03:01:10.612Z,3.90
2023-04-25T03:06:12.403Z,4.07
2023-04-25T03:11:14.056Z,4.57
2023-04-25T03:16:17.657Z,5.45
2023-04-25T03:21:19.543Z,4.75
2023-04-25T03:26:21.625Z,4.93
2023-04-25T03:31:23.821Z,5.30
2023-04-25T03:36:25.701Z,4.25
2023-04-25T03:41:27.632Z,5.45
2023-04-25T03:46:35.451Z,5.13
2023-04-25T03:51:37.727Z,5.43
2023-04-25T03:56:39.601Z,5.78
2023-04-25T04:01:51.039Z,6.07
2023-04-25T04:06:53.483Z,6.32
2023-04-25T04:17:02.151Z,6.32
2023-04-25T04:22:04.640Z,6.32
2023-04-25T04:27:07.111Z,5.93
2023-04-25T04:32:15.735Z,6.25
2023-04-25T04:37:18.545Z,6.70
2023-04-25T04:42:20.783Z,5.60
2023-04-25T04:47:33.528Z,6.38
2023-04-25T04:52:59.131Z,6.10
2023-04-25T04:58:20.872Z,6.55
2023-04-25T05:03:49.089Z,5.47
2023-04-25T05:09:17.386Z,5.13
2023-04-25T05:14:51.510Z,5.40
2023-04-25T05:20:06.801Z,5.22
2023-04-25T05:25:19.754Z,5.22
2023-04-25T05:30:36.103Z,4.73
2023-04-25T05:35:53.392Z,4.57
2023-04-25T05:40:55.233Z,4.95
2023-04-25T05:46:29.382Z,4.50
2023-04-25T05:51:56.349Z,4.82
2023-04-25T05:57:27.154Z,5.22
2023-04-25T06:02:31.407Z,5.13
2023-04-25T06:07:33.273Z,5.40
2023-04-25T06:12:35.012Z,6.47
2023-04-25T06:17:38.849Z,6.07
2023-04-25T06:22:41.662Z,5.65
2023-04-25T06:27:43.524Z,5.57
2023-04-25T06:32:45.528Z,5.65
2023-04-25T06:37:47.338Z,5.15
2023-04-25T06:42:49.185Z,5.30
2023-04-25T06:48:09.646Z,5.47
2023-04-25T06:53:12.580Z,5.25
2023-04-25T06:58:15.505Z,5.88
2023-04-25T07:03:49.634Z,5.80
2023-04-25T07:08:53.930Z,5.38
2023-04-25T07:13:56.115Z,5.60
2023-04-25T07:18:58.143Z,4.38
2023-04-25T07:23:59.887Z,4.70
2023-04-25T07:29:07.046Z,4.13
2023-04-25T07:34:12.220Z,3.20
2023-04-25T07:39:14.233Z,4.03
2023-04-25T07:44:16.724Z,3.40
2023-04-25T07:49:19.197Z,3.72
2023-04-25T07:54:20.895Z,2.97
2023-04-25T07:59:30.214Z,2.50
2023-04-25T08:04:34.874Z,2.63
2023-04-25T08:09:42.568Z,3.05
2023-04-25T08:14:51.659Z,3.72
2023-04-25T08:19:54.112Z,3.72
2023-04-25T08:25:03.124Z,2.80
2023-04-25T08:30:06.518Z,3.17
2023-04-25T08:35:08.757Z,2.75
2023-04-25T08:40:15.246Z,2.83
2023-04-25T08:45:33.376Z,3.15
2023-04-25T08:50:35.992Z,3.53
2023-04-25T08:55:42.652Z,4.13
2023-04-25T09:00:48.030Z,4.30
2023-04-25T09:05:51.153Z,4.10
2023-04-25T09:10:52.947Z,3.65
2023-04-25T09:15:57.555Z,4.88
2023-04-25T09:21:17.014Z,3.90
2023-04-25T09:26:21.852Z,2.40
2023-04-25T09:31:25.675Z,3.53
2023-04-25T09:36:31.530Z,3.58
2023-04-25T09:41:55.094Z,3.67
2023-04-25T09:46:58.103Z,4.20
2023-04-25T09:52:01.918Z,3.85
2023-04-25T10:02:27.544Z,3.75
2023-04-25T10:07:39.047Z,3.85
2023-04-25T10:12:45.622Z,3.65
2023-04-25T10:17:47.395Z,3.15
2023-04-25T10:22:49.788Z,4.25
2023-04-25T10:27:52.712Z,4.30
2023-04-25T10:32:56.383Z,5.05
2023-04-25T10:38:09.940Z,4.30
2023-04-25T10:43:39.427Z,3.55
2023-04-25T10:48:48.716Z,4.30
2023-04-25T10:54:09.880Z,5.10
2023-04-25T10:59:11.659Z,4.40
2023-04-25T11:04:32.021Z,6.20
2023-04-25T11:09:35.068Z,5.25
2023-04-25T11:14:37.232Z,4.72
2023-04-25T11:19:39.024Z,4.30
2023-04-25T11:24:40.741Z,4.07
2023-04-25T11:29:42.576Z,2.22
2023-04-25T11:34:48.603Z,2.03
2023-04-25T11:39:50.367Z,1.70
2023-04-25T11:44:52.941Z,1.90
2023-04-25T11:49:54.873Z,2.10
2023-04-25T11:54:58.008Z,2.20
2023-04-25T12:00:17.613Z,1.73
2023-04-25T12:10:28.972Z,2.10
2023-04-25T12:15:30.691Z,2.65
2023-04-25T12:20:32.757Z,3.63
2023-04-25T12:25:42.930Z,2.15
2023-04-25T12:31:01.818Z,2.55
2023-04-25T12:36:09.386Z,2.20
2023-04-25T12:41:11.218Z,2.30
2023-04-25T12:46:12.932Z,2.58
2023-04-25T12:51:14.785Z,3.35
2023-04-25T12:56:16.540Z,2.40
2023-04-25T13:01:18.274Z,2.85
2023-04-25T13:06:21.385Z,3.63
2023-04-25T13:11:23.152Z,4.07
2023-04-25T13:16:24.791Z,4.35
2023-04-25T13:21:26.630Z,3.75
2023-04-25T13:26:28.374Z,3.97
2023-04-25T13:31:31.028Z,3.47
2023-04-25T13:36:32.926Z,3.10
2023-04-25T13:41:34.922Z,3.00
2023-04-25T13:51:43.511Z,3.53
2023-04-25T13:56:45.470Z,3.50
2023-04-25T14:01:47.323Z,3.35
2023-04-25T14:06:49.133Z,2.83
2023-04-25T14:11:50.743Z,3.33
2023-04-25T14:16:54.998Z,3.92
2023-04-25T14:21:57.246Z,4.00
2023-04-25T14:26:58.950Z,3.58
2023-04-25T14:32:00.961Z,3.83
2023-04-25T14:37:02.821Z,3.65
2023-04-25T14:42:04.724Z,4.15
2023-04-25T14:47:06.616Z,2.90
2023-04-25T14:52:08.521Z,3.22
2023-04-25T14:57:10.172Z,3.58
2023-04-25T15:02:12.287Z,3.45
2023-04-25T15:07:14.809Z,2.60
2023-04-25T15:12:18.453Z,3.20
2023-04-25T15:17:20.640Z,2.65
2023-04-25T15:22:22.388Z,2.08
2023-04-25T15:27:24.199Z,1.95
2023-04-25T15:32:26.610Z,1.55
2023-04-25T15:37:28.410Z,1.85
2023-04-25T15:42:30.533Z,1.92
2023-04-25T15:47:33.225Z,2.20
2023-04-25T15:52:36.885Z,1.90
2023-04-25T15:57:38.770Z,1.33
2023-04-25T16:02:42.211Z,1.60
2023-04-25T16:07:45.187Z,1.77
2023-04-25T16:12:50.149Z,2.60
2023-04-25T16:17:52.028Z,1.40
2023-04-25T16:22:53.794Z,1.63
2023-04-25T16:27:55.461Z,1.88
2023-04-25T16:32:57.658Z,1.70
2023-04-25T16:37:59.605Z,1.40
2023-04-25T16:43:01.996Z,1.60
2023-04-25T16:48:03.856Z,2.67
2023-04-25T16:53:05.670Z,1.77
2023-04-25T16:58:08.794Z,1.90
2023-04-25T17:03:12.202Z,2.13
2023-04-25T17:08:13.966Z,1.75
2023-04-25T17:13:16.030Z,1.50
2023-04-25T17:18:17.842Z,1.25
2023-04-25T17:23:22.028Z,1.83
2023-04-25T17:28:23.831Z,1.65
2023-04-25T17:33:27.160Z,1.67
2023-04-25T17:38:28.930Z,1.27
2023-04-25T17:43:31.491Z,1.73
2023-04-25T17:48:33.250Z,2.83
2023-04-25T17:53:35.850Z,2.72
2023-04-25T17:58:37.578Z,2.55
2023-04-25T18:03:40.497Z,1.75
2023-04-25T18:08:42.397Z,1.77
2023-04-25T18:13:44.152Z,1.67
2023-04-25T18:18:53.062Z,1.95
2023-04-25T18:23:55.436Z,1.52
2023-04-25T18:28:57.319Z,1.80
2023-04-25T18:33:59.250Z,1.50
2023-04-25T18:44:05.556Z,1.25
2023-04-25T18:49:07.275Z,1.80
2023-04-25T18:54:11.127Z,1.63
2023-04-25T18:59:15.474Z,15.93
2023-04-25T19:04:17.354Z,13.52
2023-04-25T19:09:19.394Z,3.63
2023-04-25T19:14:21.285Z,1.85
2023-04-25T19:19:23.056Z,2.95
2023-04-25T19:24:24.763Z,3.90
2023-04-25T19:29:27.836Z,3.25
2023-04-25T19:34:29.611Z,3.00
2023-04-25T19:39:31.262Z,2.72
2023-04-25T19:44:32.957Z,1.98
2023-04-25T19:49:34.705Z,1.50
2023-04-25T19:54:36.599Z,1.80
2023-04-25T19:59:38.559Z,1.60
2023-04-25T20:04:40.391Z,1.90
2023-04-25T20:09:42.353Z,2.00
2023-04-25T20:14:44.944Z,1.67
2023-04-25T20:19:46.751Z,1.95
2023-04-25T20:24:48.420Z,2.30
2023-04-25T20:29:50.084Z,2.38
2023-04-25T20:34:51.777Z,2.22
2023-04-25T20:39:53.671Z,1.75
2023-04-25T20:44:55.882Z,1.70
2023-04-25T20:49:59.262Z,1.35
2023-04-25T20:55:01.192Z,1.75
2023-04-25T21:00:05.353Z,1.27
2023-04-25T21:05:07.308Z,1.30
2023-04-25T21:10:09.494Z,1.40
2023-04-25T21:15:12.715Z,1.30
2023-04-25T21:20:19.440Z,1.35
2023-04-25T21:25:29.302Z,1.05
2023-04-25T21:30:31.145Z,1.60
2023-04-25T21:35:32.894Z,1.60
2023-04-25T21:40:35.132Z,1.33
2023-04-25T21:45:47.167Z,1.42
2023-04-25T21:50:58.500Z,1.48
2023-04-25T21:56:00.214Z,1.63
2023-04-25T22:01:02.066Z,1.00
2023-04-25T22:06:04.049Z,1.20
2023-04-25T22:11:07.427Z,1.10
2023-04-25T22:16:12.207Z,1.20
2023-04-25T22:21:14.697Z,2.95
2023-04-25T22:26:16.447Z,1.40
2023-04-25T22:31:18.201Z,1.30
2023-04-25T22:36:20.130Z,1.67
2023-04-25T22:41:23.574Z,1.48
2023-04-25T22:46:25.373Z,1.98
2023-04-25T22:51:27.071Z,1.33
2023-04-25T22:56:32.703Z,1.80
2023-04-25T23:01:34.480Z,1.85
2023-04-25T23:06:36.185Z,1.90
2023-04-25T23:11:38.492Z,1.40
2023-04-25T23:16:40.883Z,1.80
2023-04-25T23:21:42.645Z,1.67
2023-04-25T23:26:44.402Z,1.80
2023-04-25T23:31:46.056Z,2.03
2023-04-25T23:36:47.685Z,2.55
2023-04-25T23:41:49.314Z,1.90
2023-04-25T23:46:51.397Z,1.80
2023-04-25T23:51:53.109Z,1.73
2023-04-25T23:56:54.793Z,1.80
